Orto / Ocaso: 06:19 / 18:28 UTC (Datos para LEAX 20-03-2019)

[fuente: ADDS]

METAR:


LEMG 200700Z 11009KT 9999 FEW030 BKN040 14/08 Q1025 NOSIG =
TAF COR LEMG 200514Z 2006/2106 12011KT 9999 SCT020 BKN030 TX18/2013Z TN12/2006Z PROB40 TEMPO 2006/2008 VRB03KT PROB30 TEMPO 2018/2022 RA BKN014 BECMG 2102/2104 30005KT LEGR 200700Z 00000KT 9999 SCT035 03/01 Q1025 =
TAF LEGR 200200Z 2003/2103 VRB02KT 9999 FEW040 TX17/2015Z TN00/2007Z PROB30 TEMPO 2004/2009 3000 BR PROB40 TEMPO 2014/2020 19010KT LEZL 200700Z 04007KT CAVOK 08/02 Q1024 NOSIG =
TAF LEZL 200200Z 2003/2103 06007KT CAVOK TX21/2015Z TN08/2007Z LEAM 200700Z 35005KT 9999 FEW030 11/05 Q1025 =
TAF LEAM 200200Z 2003/2103 33005KT 9999 FEW030 TX17/2014Z TN07/2006Z BECMG 2008/2010 09012KT PROB40 TEMPO 2013/2018 09015G25KT FEW030TCU BECMG 2018/2020 33007KT LEBA 200700Z 28001KT CAVOK 04/M00 Q1025 =
TAF LEBA 200500Z 2006/2015 09005KT CAVOK LEJR 200700Z VRB02KT CAVOK 06/03 Q1024 =
TAF LEJR 200500Z 2006/2106 01005KT CAVOK TX19/2014Z TN06/2007Z BECMG 2009/2011 12010KT GEML 200700Z 07010KT 040V110 9999 SCT032 14/06 Q1025 =
TAF COR GEML 200242Z 2003/2103 09009KT 9999 FEW010 SCT025 TX15/2014Z TN12/2007Z PROB30 TEMPO 2017/2024 10015G25KT PROB30 TEMPO 2007/2012 RA BKN014 LXGB 200650Z 09019KT 9999 SCT030 BKN050 15/09 Q1023 NOSIG =
TAF LXGB 200529Z 2006/2015 09018G28KT 9999 SCT028 TEMPO 2008/2015 08022G34KT 530002

TAFOR:


TAF COR LEMG 200514Z 2006/2106 12011KT 9999 SCT020 BKN030 TX18/2013Z TN12/2006Z PROB40 TEMPO 2006/2008 VRB03KT PROB30 TEMPO 2018/2022 RA BKN014 BECMG 2102/2104 30005KT =
TAF LEGR 200200Z 2003/2103 VRB02KT 9999 FEW040 TX17/2015Z TN00/2007Z PROB30 TEMPO 2004/2009 3000 BR PROB40 TEMPO 2014/2020 19010KT =
TAF LEZL 200200Z 2003/2103 06007KT CAVOK TX21/2015Z TN08/2007Z =
TAF LEAM 200200Z 2003/2103 33005KT 9999 FEW030 TX17/2014Z TN07/2006Z BECMG 2008/2010 09012KT PROB40 TEMPO 2013/2018 09015G25KT FEW030TCU BECMG 2018/2020 33007KT =
TAF LEBA 200500Z 2006/2015 09005KT CAVOK =
TAF LEJR 200500Z 2006/2106 01005KT CAVOK TX19/2014Z TN06/2007Z BECMG 2009/2011 12010KT =
TAF COR GEML 200242Z 2003/2103 09009KT 9999 FEW010 SCT025 TX15/2014Z TN12/2007Z PROB30 TEMPO 2017/2024 10015G25KT PROB30 TEMPO 2007/2012 RA BKN014 =
TAF LXGB 200529Z 2006/2015 09018G28KT 9999 SCT028 TEMPO 2008/2015 08022G34KT 530002 =

Recuerde que, aunque regularmente actualizada, la información meteorológica aquí presentada no debe ser utilizada para la planificación de vuelos. Si lo desea, puede consultar la información meteorológica adecuada, tanto de aeródromos como en ruta, por las vías oficialmente establecidas en la legislación -> AQUí